createdAt,value
2023-01-13T00:00:19.071Z,995.5
2023-01-13T00:05:25.130Z,995.6
2023-01-13T00:10:31.219Z,995.6
2023-01-13T00:15:37.316Z,995.6
2023-01-13T00:20:43.434Z,995.6
2023-01-13T00:25:49.501Z,995.5
2023-01-13T00:30:55.616Z,995.4
2023-01-13T00:36:01.695Z,995.4
2023-01-13T00:41:07.784Z,995.3
2023-01-13T00:46:13.892Z,995.3
2023-01-13T00:51:19.972Z,995.3
2023-01-13T00:56:26.081Z,995.2
2023-01-13T01:01:32.181Z,995.3
2023-01-13T01:06:37.279Z,995.2
2023-01-13T01:11:43.382Z,995.2
2023-01-13T01:16:49.543Z,995.1
2023-01-13T01:21:55.580Z,995.1
2023-01-13T01:27:01.680Z,995
2023-01-13T01:32:07.788Z,994.9
2023-01-13T01:37:13.861Z,994.7
2023-01-13T01:42:19.941Z,994.6
2023-01-13T01:47:26.070Z,994.6
2023-01-13T01:52:32.148Z,994.6
2023-01-13T01:57:38.259Z,994.6
2023-01-13T02:02:44.332Z,994.5
2023-01-13T02:07:50.433Z,994.5
2023-01-13T02:12:55.589Z,994.5
2023-01-13T02:18:01.637Z,994.5
2023-01-13T02:23:07.737Z,994.5
2023-01-13T02:28:13.910Z,994.5
2023-01-13T02:33:19.900Z,994.6
2023-01-13T02:38:26.021Z,994.6
2023-01-13T02:43:32.114Z,994.7
2023-01-13T02:48:38.198Z,994.9
2023-01-13T02:53:44.305Z,994.9
2023-01-13T02:58:50.388Z,994.9
2023-01-13T03:03:56.585Z,994.9
2023-01-13T03:09:02.592Z,994.9
2023-01-13T03:14:08.686Z,994.9
2023-01-13T03:19:13.793Z,994.8
2023-01-13T03:24:19.884Z,994.8
2023-01-13T03:29:25.981Z,994.8
2023-01-13T03:34:32.069Z,994.9
2023-01-13T03:39:38.169Z,994.9
2023-01-13T03:44:44.277Z,994.8
2023-01-13T03:49:50.360Z,994.8
2023-01-13T03:54:56.474Z,994.9
2023-01-13T04:00:02.585Z,994.9
2023-01-13T04:05:08.654Z,994.8
2023-01-13T04:10:14.732Z,994.8
2023-01-13T04:15:20.831Z,994.8
2023-01-13T04:20:26.934Z,994.8
2023-01-13T04:25:32.054Z,994.8
2023-01-13T04:30:38.134Z,994.7
2023-01-13T04:35:44.230Z,994.5
2023-01-13T04:40:50.330Z,994.6
2023-01-13T04:45:56.433Z,994.6
2023-01-13T04:51:02.509Z,994.5
2023-01-13T04:56:08.676Z,994.6
2023-01-13T05:01:14.707Z,994.6
2023-01-13T05:06:20.815Z,994.5
2023-01-13T05:11:26.909Z,994.5
2023-01-13T05:16:32.979Z,994.5
2023-01-13T05:21:39.151Z,994.4
2023-01-13T05:26:45.187Z,994.4
2023-01-13T05:31:50.312Z,994.4
2023-01-13T05:36:56.412Z,994.4
2023-01-13T05:42:02.539Z,994.3
2023-01-13T05:47:08.593Z,994.3
2023-01-13T05:52:14.668Z,994.4
2023-01-13T05:57:19.793Z,994.3
2023-01-13T06:02:25.896Z,994.4
2023-01-13T06:07:31.979Z,994.9
2023-01-13T06:12:38.088Z,995.3
2023-01-13T06:17:44.167Z,995.3
2023-01-13T06:22:50.274Z,995.4
2023-01-13T06:27:56.380Z,995.3
2023-01-13T06:33:02.459Z,995.2
2023-01-13T06:38:08.568Z,995.2
2023-01-13T06:43:14.654Z,995.2
2023-01-13T06:48:20.744Z,995.2
2023-01-13T06:53:26.861Z,995.2
2023-01-13T06:58:32.955Z,995.2
2023-01-13T07:03:38.114Z,995.3
2023-01-13T07:08:44.160Z,995.3
2023-01-13T07:13:50.233Z,995.7
2023-01-13T07:18:56.350Z,995.7
2023-01-13T07:24:02.514Z,995.7
2023-01-13T07:29:08.555Z,995.9
2023-01-13T07:34:14.638Z,995.8
2023-01-13T07:39:20.736Z,995.8
2023-01-13T07:44:26.901Z,995.9
2023-01-13T07:49:32.909Z,995.8
2023-01-13T07:54:39.030Z,995.5
2023-01-13T07:59:45.110Z,995.5
2023-01-13T08:04:51.277Z,995.4
2023-01-13T08:09:56.331Z,995.3
2023-01-13T08:15:02.464Z,995.1
2023-01-13T08:20:08.639Z,995
2023-01-13T08:25:14.602Z,995.7
2023-01-13T08:30:20.710Z,996
2023-01-13T08:35:26.822Z,996.1
2023-01-13T08:40:32.901Z,996.1
2023-01-13T08:45:39.012Z,996
2023-01-13T08:50:45.255Z,995.8
2023-01-13T08:55:51.192Z,995.6
2023-01-13T09:00:57.299Z,996.1
2023-01-13T09:06:03.420Z,996.4
2023-01-13T09:11:09.484Z,996.4
2023-01-13T09:16:14.597Z,996.4
2023-01-13T09:21:21.743Z,995.9
2023-01-13T09:26:26.777Z,996.1
2023-01-13T09:31:32.885Z,996
2023-01-13T09:36:38.969Z,996
2023-01-13T09:41:45.061Z,996.1
2023-01-13T09:46:51.158Z,996.1
2023-01-13T09:51:57.263Z,996.1
2023-01-13T09:57:03.350Z,995.9
2023-01-13T10:02:09.456Z,996
2023-01-13T10:07:15.560Z,996.1
2023-01-13T10:12:21.647Z,996.1
2023-01-13T10:17:27.746Z,996.3
2023-01-13T10:22:32.856Z,996.4
2023-01-13T10:27:38.954Z,996.3
2023-01-13T10:32:45.048Z,996.3
2023-01-13T10:37:51.156Z,996.3
2023-01-13T10:42:57.278Z,996.4
2023-01-13T10:48:03.321Z,996.3
2023-01-13T10:53:09.467Z,996.2
2023-01-13T10:58:15.577Z,996.3
2023-01-13T11:03:21.612Z,996.3
2023-01-13T11:08:27.717Z,996.5
2023-01-13T11:13:33.847Z,996.5
2023-01-13T11:18:39.905Z,996.5
2023-01-13T11:23:45.995Z,996.4
2023-01-13T11:28:51.102Z,996.4
2023-01-13T11:33:57.195Z,996.4
2023-01-13T11:39:03.384Z,996.6
2023-01-13T11:44:09.408Z,996.6
2023-01-13T11:49:15.492Z,996.5
2023-01-13T11:54:21.593Z,996.6
2023-01-13T11:59:27.679Z,996.7
2023-01-13T12:04:33.772Z,996.7
2023-01-13T12:09:39.881Z,996.7
2023-01-13T12:14:45.970Z,996.7
2023-01-13T12:19:52.076Z,996.5
2023-01-13T12:24:58.152Z,996.5
2023-01-13T12:30:04.243Z,996.5
2023-01-13T12:35:09.370Z,996.6
2023-01-13T12:40:15.455Z,996.7
2023-01-13T12:45:21.554Z,996.8
2023-01-13T12:50:27.660Z,996.8
2023-01-13T12:55:33.898Z,996.7
2023-01-13T13:00:39.916Z,996.7
2023-01-13T13:05:45.962Z,996.8
2023-01-13T13:10:52.060Z,996.8
2023-01-13T13:15:58.287Z,996.7
2023-01-13T13:21:04.223Z,996.7
2023-01-13T13:26:10.327Z,996.7
2023-01-13T13:31:16.421Z,996.8
2023-01-13T13:36:22.509Z,996.8
2023-01-13T13:41:27.651Z,996.7
2023-01-13T13:46:33.715Z,996.8
2023-01-13T13:51:39.844Z,996.8
2023-01-13T13:56:45.922Z,997
2023-01-13T14:01:52.001Z,997
2023-01-13T14:06:58.114Z,996.9
2023-01-13T14:12:04.170Z,996.7
2023-01-13T14:17:10.246Z,997
2023-01-13T14:22:16.346Z,996.9
2023-01-13T14:27:22.432Z,996.8
2023-01-13T14:32:28.548Z,996.8
2023-01-13T14:37:34.606Z,997
2023-01-13T14:42:40.708Z,997.1
2023-01-13T14:47:45.812Z,997.1
2023-01-13T14:52:51.913Z,997.2
2023-01-13T14:57:58.108Z,997.1
2023-01-13T15:03:04.163Z,997.2
2023-01-13T15:08:10.225Z,997.1
2023-01-13T15:13:16.290Z,997.1
2023-01-13T15:18:22.378Z,997.1
2023-01-13T15:23:28.484Z,997.2
2023-01-13T15:28:34.580Z,997.2
2023-01-13T15:33:40.661Z,997.2
2023-01-13T15:38:46.762Z,997.3
2023-01-13T15:43:52.866Z,997.3
2023-01-13T15:48:58.967Z,997.5
2023-01-13T15:54:04.076Z,997.4
2023-01-13T15:59:10.161Z,997.5
2023-01-13T16:04:16.258Z,997.5
2023-01-13T16:09:22.379Z,997.6
2023-01-13T16:14:28.451Z,997.8
2023-01-13T16:19:34.562Z,997.8
2023-01-13T16:24:40.657Z,997.7
2023-01-13T16:29:46.763Z,997.7
2023-01-13T16:34:52.926Z,997.8
2023-01-13T16:39:59.000Z,997.8
2023-01-13T16:45:05.076Z,997.8
2023-01-13T16:50:11.178Z,998
2023-01-13T16:55:17.292Z,998.1
2023-01-13T17:00:22.464Z,998.4
2023-01-13T17:05:28.499Z,998.4
2023-01-13T17:10:34.603Z,998.4
2023-01-13T17:15:40.695Z,998.5
2023-01-13T17:20:46.784Z,998.5
2023-01-13T17:25:52.886Z,998.6
2023-01-13T17:30:58.992Z,998.6
2023-01-13T17:36:05.086Z,998.7
2023-01-13T17:41:11.181Z,998.9
2023-01-13T17:46:17.280Z,999
2023-01-13T17:51:23.363Z,999.1
2023-01-13T17:56:29.468Z,999.2
2023-01-13T18:01:35.544Z,999.1
2023-01-13T18:06:40.667Z,999.1
2023-01-13T18:11:46.768Z,999.2
2023-01-13T18:16:52.860Z,999.3
2023-01-13T18:21:58.955Z,999.3
2023-01-13T18:27:05.055Z,999.5
2023-01-13T18:32:11.141Z,999.5
2023-01-13T18:37:17.236Z,999.6
2023-01-13T18:42:23.333Z,999.7
2023-01-13T18:47:29.477Z,999.9
2023-01-13T18:52:35.523Z,999.9
2023-01-13T18:57:41.707Z,1000.1
2023-01-13T19:02:47.852Z,1000.1
2023-01-13T19:07:53.821Z,1000.2
2023-01-13T19:12:58.927Z,1000.2
2023-01-13T19:18:05.027Z,1000.3
2023-01-13T19:23:11.124Z,1000.4
2023-01-13T19:28:17.208Z,1000.5
2023-01-13T19:33:23.312Z,1000.6
2023-01-13T19:38:29.410Z,1000.7
2023-01-13T19:43:35.511Z,1000.7
2023-01-13T19:48:41.604Z,1000.8
2023-01-13T19:53:47.703Z,1000.8
2023-01-13T19:58:53.789Z,1000.9
2023-01-13T20:03:59.886Z,1000.9
2023-01-13T20:09:05.991Z,1001
2023-01-13T20:14:12.090Z,1001.1
2023-01-13T20:19:17.194Z,1001.2
2023-01-13T20:24:23.289Z,1001.3
2023-01-13T20:29:29.388Z,1001.4
2023-01-13T20:34:35.487Z,1001.3
2023-01-13T20:39:41.578Z,1001.5
2023-01-13T20:44:47.677Z,1001.6
2023-01-13T20:49:53.769Z,1001.5
2023-01-13T20:54:59.868Z,1001.6
2023-01-13T21:00:05.972Z,1001.8
2023-01-13T21:05:12.055Z,1001.7
2023-01-13T21:10:18.153Z,1001.7
2023-01-13T21:15:24.283Z,1001.8
2023-01-13T21:20:30.343Z,1001.9
2023-01-13T21:25:35.447Z,1002
2023-01-13T21:30:41.566Z,1001.9
2023-01-13T21:35:47.651Z,1002
2023-01-13T21:40:53.755Z,1002
2023-01-13T21:45:59.864Z,1002
2023-01-13T21:51:05.942Z,1002.1
2023-01-13T21:56:12.051Z,1002.1
2023-01-13T22:01:18.139Z,1002
2023-01-13T22:06:24.243Z,1002.2
2023-01-13T22:11:30.328Z,1002.3
2023-01-13T22:16:36.437Z,1002.2
2023-01-13T22:21:42.520Z,1002.3
2023-01-13T22:26:48.602Z,1002.3
2023-01-13T22:31:53.721Z,1002.3
2023-01-13T22:36:59.818Z,1002.4
2023-01-13T22:42:05.926Z,1002.4
2023-01-13T22:47:12.031Z,1002.3
2023-01-13T22:52:18.120Z,1002.4
2023-01-13T22:57:24.253Z,1002.4
2023-01-13T23:02:29.318Z,1002.6
2023-01-13T23:07:35.427Z,1002.6
2023-01-13T23:12:41.579Z,1002.6
2023-01-13T23:17:47.617Z,1002.6
2023-01-13T23:22:53.711Z,1002.6
2023-01-13T23:27:59.922Z,1002.6
2023-01-13T23:33:05.923Z,1002.7
2023-01-13T23:38:12.003Z,1002.8
2023-01-13T23:43:18.100Z,1002.8
2023-01-13T23:48:24.198Z,1002.6
2023-01-13T23:53:30.289Z,1002.9
2023-01-13T23:58:36.386Z,1002.9
